Latest Coastal Weather Observations for Maatsuyker Island

IDT60701

Issued at 4:42 am EDT Sunday 25 October 2020 (issued every 10 minutes, with the page automatically refreshed every 10 minutes)

About coastal observations | Map of coastal stations | Coastal observations for TAS | Marine services | Other Formats
Station Details ID: 094041 Name: MAATSUYKER ISLAND LIGHTHOUSE Lat: -43.66 Lon: 146.27 Height: 146.5 m
Data from the previous 72 hours. | See also: Recent months at Maatsuyker Island
Date/Time
EDT
Wind Sea
Height
m
Swell Vis
km
Cloud Weather Temp
°C
Press
MSL
hPa
Rain since
9am
mm
Dir  Spd
kts
Gust
kts
Height
m
Period
s
Dir
25/04:30am S 24 29 - - - - - - - 5.8 1018.1 1.2
25/04:27am SSE 25 28 - - - - - - - 5.7 1017.9 1.2
25/04:00am S 14 19 - - - - - - - 5.3 - 1.2
25/03:30am S 27 35 - - - - - - - 5.0 - 1.2
25/03:22am S 25 35 - - - - - - - 5.7 - 1.2
25/03:13am SSE 19 27 - - - - - - - 5.4 - 1.2
25/03:00am SSW 11 16 - - - - - - - 5.0 1017.0 1.2
25/02:49am S 17 27 - - - - - - - 4.4 - 1.2
25/02:41am SSE 20 27 - - - - - - - 4.1 - 0.8
25/02:30am SSW 13 20 - - - - - - - 3.9 - 0.8
25/02:21am S 27 33 - - - - - - - 4.6 - 0.6
25/02:00am S 15 22 - - - - - - - 4.4 - 0.6
25/01:54am S 16 22 - - - - - - - 4.2 - 0.6
25/01:38am SSW 27 37 - - - - - - - 5.1 - 0.4
25/01:30am S 36 41 - - - - - - - 5.5 - 0.4
25/01:20am SSE 31 35 - - - - - - - 6.3 - 0.4
25/01:00am S 21 25 - - - - - - - 6.2 - 0.4
25/12:58am S 21 23 - - - - - - - 6.1 - 0.4
25/12:30am SSE 20 25 - - - - - - - 5.8 - 0.4
25/12:00am S 20 24 - - - - - - - 6.2 1014.4 0.4
 
Date/Time
EDT
Wind Sea
Height
m
Swell Vis
km
Cloud Weather Temp
°C
Press
MSL
hPa
Rain since
9am
mm
Dir  Spd
kts
Gust
kts
Height
m
Period
s
Dir
24/11:30pm S 26 32 - - - - - - - 6.2 - 0.4
24/11:00pm S 21 27 - - - - - - - 6.3 - 0.4
24/10:30pm S 19 24 - - - - - - - 6.4 - 0.4
24/10:00pm SSW 16 24 - - - - - - - 6.3 - 0.4
24/09:37pm SSW 19 29 - - - - - - - 6.4 - 0.4
24/09:30pm SSW 23 29 - - - - - - - 6.5 - 0.4
24/09:03pm SSW 19 29 - - - - - - - 6.6 - 0.4
24/09:00pm SSW 21 29 - - - - - - - 6.6 1011.6 0.4
24/08:41pm S 21 26 - - - - - - - 7.1 - 0.4
24/08:32pm SW 19 23 - - - - - - - 7.0 - 0.4
24/08:30pm S 20 28 - - - - - - - 7.1 - 0.4
24/08:28pm S 22 28 - - - - - - - 7.0 - 0.4
24/08:00pm SW 21 30 - - - - - - - 7.0 - 0.4
24/07:31pm SSW 20 30 - - - - - - - 7.3 - 0.4
24/07:30pm SSW 20 28 - - - - - - - 7.3 - 0.4
24/07:00pm SSW 21 28 - - - - - - - 7.4 - 0.4
24/06:50pm SW 21 31 - - - - - - - 7.5 - 0.4
24/06:30pm SSW 21 29 - - - - - - - 7.3 - 0.4
24/06:06pm SSW 18 28 - - - - - - - 7.2 - 0.4
24/06:00pm SSW 19 23 - - - - - - - 7.3 1007.1 0.4
24/05:40pm WSW 19 31 - - - - - - - 7.6 - 0.4
24/05:30pm WSW 20 26 - - - - - - - 8.1 - 0.4
24/05:00pm WSW 19 26 - - - - - - - 7.5 - 0.4
24/04:43pm SW 21 26 - - - - - - - 7.3 - 0.4
24/04:36pm W 20 30 - - - - - - - 7.3 - 0.4
24/04:30pm W 23 30 - - - - - - - 6.7 - 0.4
24/04:15pm W 23 27 - - - - - - - 8.6 - 0.2
24/04:00pm WNW 28 33 - - - - - - - 8.2 - 0.2
24/03:30pm W 28 33 - - - - - - - 6.8 - 0.2
24/03:26pm W 29 33 - - - - - - - 7.1 - 0.2
24/03:00pm WNW 40 54 - - - - - - - 9.1 1003.3 0.2
24/02:59pm WNW 39 54 - - - - - - - 9.4 - 0.2
24/02:30pm WNW 43 49 - - - - - - - 8.9 - 0.2
24/02:16pm NW 37 46 - - - - - - - 9.4 - 0.0
24/02:00pm NW 32 36 - - - - - - - 9.2 - 0.0
24/01:34pm NW 37 47 - - - - - - - 9.2 - 0.0
24/01:30pm NW 35 40 - - - - - - - 9.6 - 0.0
24/01:00pm NW 35 39 - - - - - - - 9.9 - 0.0
24/12:30pm NW 35 41 - - - - - - - 10.0 - 0.0
24/12:00pm WNW 36 41 - - - - - - - 9.9 1002.5 0.0
24/11:30am WNW 37 41 - - - - - - - 9.9 - 0.0
24/11:00am WNW 34 40 - - - - - - - 9.7 - 0.0
24/10:30am WNW 31 35 - - - - - - - 9.2 - 0.0
24/10:00am WNW 33 37 - - - - - - - 8.9 - 0.0
24/09:30am WNW 30 35 - - - - - - - 8.7 - 0.0
24/09:00am WNW 28 33 2 3.5 12 SW 15 Mostly cloudy Distant precip. 8.4 1002.7 1.4
24/08:30am WNW 28 32 - - - - - - - 8.6 - 1.4
24/08:00am WNW 23 29 - - - - - - - 8.1 - 1.4
24/07:30am WNW 21 25 - - - - - - - 7.9 - 1.2
24/07:00am W 19 23 - - - - - - - 8.0 - 1.0
24/06:33am W 21 26 - - - - - - - 8.0 - 1.0
24/06:30am NW 21 26 - - - - - - - 8.3 - 1.0
24/06:00am WNW 22 29 1 3.5 12 SW 10 Cloudy Showers 8.6 1002.2 0.2
24/05:30am WNW 24 26 - - - - - - - 9.3 - 0.0
24/05:00am W 20 24 - - - - - - - 9.0 - 0.0
24/04:30am W 21 25 - - - - - - - 9.4 - 0.0
24/04:19am W 21 25 - - - - - - - 10.0 - 0.0
24/04:00am NW 24 28 - - - - - - - 9.9 - 0.0
24/03:30am NW 24 26 - - - - - - - 10.0 - 0.0
24/03:00am WNW 24 26 - - - - - - - 9.9 1002.8 0.0
24/02:30am WNW 22 25 - - - - - - - 10.1 - 0.0
24/02:00am NW 22 25 - - - - - - - 10.4 - 0.0
24/01:30am NW 21 25 - - - - - - - 10.4 - 0.0
24/01:00am NW 22 26 - - - - - - - 10.6 - 0.0
24/12:30am NW 20 23 - - - - - - - 10.6 - 0.0
24/12:00am NW 18 21 - - - - - - - 10.5 1004.1 0.0
 
Date/Time
EDT
Wind Sea
Height
m
Swell Vis
km
Cloud Weather Temp
°C
Press
MSL
hPa
Rain since
9am
mm
Dir  Spd
kts
Gust
kts
Height
m
Period
s
Dir
23/11:30pm NW 18 21 - - - - - - - 10.6 - 0.0
23/11:00pm NW 19 21 - - - - - - - 10.6 - 0.0
23/10:30pm NW 21 23 - - - - - - - 11.0 - 0.0
23/10:00pm NW 16 18 - - - - - - - 10.7 - 0.0
23/09:30pm NW 17 21 - - - - - - - 11.0 - 0.0
23/09:00pm NW 20 22 - - - - - - - 11.1 1005.3 0.0
23/08:30pm NW 19 21 - - - - - - - 11.3 - 0.0
23/08:00pm NW 20 23 - - - - - - - 11.4 - 0.0
23/07:30pm NW 20 23 - - - - - - - 11.4 - 0.0
23/07:00pm NW 19 23 - - - - - - - 11.4 - 0.0
23/06:30pm NW 21 23 - - - - - - - 11.9 - 0.0
23/06:00pm NW 16 19 - - - - - - - 12.0 1005.3 0.0
23/05:30pm NW 18 20 - - - - - - - 11.7 - 0.0
23/05:00pm NW 21 23 - - - - - - - 12.7 - 0.0
23/04:30pm NW 19 22 - - - - - - - 13.0 - 0.0
23/04:00pm NW 22 24 - - - - - - - 13.0 - 0.0
23/03:30pm NW 21 23 - - - - - - - 13.2 - 0.0
23/03:00pm NW 19 22 - - - - - - - 13.7 - 0.0
23/02:30pm NW 11 13 - - - - - - - 13.7 - 0.0
23/02:00pm NW 12 14 - - - - - - - 12.6 - 0.0
23/01:30pm NW 11 14 - - - - - - - 12.4 - 0.0
23/01:00pm NW 14 16 - - - - - - - 12.1 - 0.0
23/12:30pm NW 14 16 - - - - - - - 11.7 - 0.0
23/12:00pm NW 15 16 - - - - - - - 12.0 1008.5 0.0
23/11:30am NW 10 13 - - - - - - - 11.8 - 0.0
23/11:00am NW 8 10 - - - - - - - 12.1 - 0.0
23/10:30am NNW 9 11 - - - - - - - 12.0 - 0.0
23/10:00am NNW 9 11 - - - - - - - 11.1 - 0.0
23/09:30am NNW 9 12 - - - - - - - 10.8 - 0.0
23/09:00am NNW 9 11 <0.5 2.5 15 SW 18 Mostly cloudy Fine 10.3 1010.0 0.0
23/08:30am NW 9 12 - - - - - - - 10.0 - 0.0
23/08:00am NW 9 13 - - - - - - - 9.2 - 0.0
23/07:30am NW 13 17 - - - - - - - 9.3 - 0.0
23/07:00am NW 14 18 - - - - - - - 9.1 - 0.0
23/06:30am NW 11 14 - - - - - - - 8.9 - 0.0
23/06:00am NW 12 14 <0.5 2.5 15 SW 15 Partly cloudy Fine 8.8 1010.2 0.0
23/05:30am NW 10 11 - - - - - - - 8.5 - 0.0
23/05:00am NW 11 13 - - - - - - - 8.7 - 0.0
23/04:30am NNW 9 11 - - - - - - - 8.4 - 0.0
23/04:00am NNW 9 12 - - - - - - - 8.5 - 0.0
23/03:30am NNW 9 11 - - - - - - - 8.6 - 0.0
23/03:00am NNW 10 12 - - - - - - - 8.7 1011.4 0.0
23/02:30am NNW 8 11 - - - - - - - 8.7 - 0.0
23/02:00am NW 10 11 - - - - - - - 9.1 - 0.0
23/01:30am NNW 7 9 - - - - - - - 8.9 - 0.0
23/01:00am NNW 7 9 - - - - - - - 8.8 - 0.0
23/12:30am NNW 6 7 - - - - - - - 8.8 - 0.0
23/12:00am N 4 5 - - - - - - - 8.5 1013.6 0.0
 
Date/Time
EDT
Wind Sea
Height
m
Swell Vis
km
Cloud Weather Temp
°C
Press
MSL
hPa
Rain since
9am
mm
Dir  Spd
kts
Gust
kts
Height
m
Period
s
Dir
22/11:30pm NE 1 4 - - - - - - - 9.0 - 0.0
22/11:00pm NE 3 5 - - - - - - - 8.8 - 0.0
22/10:30pm WNW 3 5 - - - - - - - 8.8 - 0.0
22/10:00pm W 4 6 - - - - - - - 8.8 - 0.0
22/09:30pm WNW 3 8 - - - - - - - 8.6 - 0.0
22/09:00pm NW 3 5 - - - - - - - 8.4 1015.3 0.0
22/08:30pm NNW 3 5 - - - - - - - 8.7 - 0.0
22/08:00pm CALM 0 3 - - - - - - - 8.8 - 0.0
22/07:30pm N 1 5 - - - - - - - 10.0 - 0.0
22/07:00pm SE 6 8 - - - - - - - 10.7 - 0.0
22/06:30pm SSE 8 10 - - - - - - - 10.9 - 0.0
22/06:00pm SSE 7 8 - - - - - - - 11.7 1015.5 0.0
22/05:30pm S 5 7 - - - - - - - 11.9 - 0.0
22/05:00pm S 5 7 - - - - - - - 12.1 - 0.0
22/04:30pm WSW 7 10 - - - - - - - 11.7 - 0.0
22/04:00pm W 7 10 - - - - - - - 11.7 - 0.0
22/03:30pm W 9 13 - - - - - - - 11.6 - 0.0
22/03:00pm W 9 13 - - - - - - - 11.7 1016.4 0.0
22/02:30pm W 9 12 - - - - - - - 11.4 - 0.0
22/02:00pm W 8 11 - - - - - - - 11.3 - 0.0
22/01:30pm SW 10 12 - - - - - - - 11.1 - 0.0
22/01:00pm WSW 9 13 - - - - - - - 11.9 - 0.0
22/12:30pm W 9 12 - - - - - - - 10.9 - 0.0
22/12:00pm W 8 11 - - - - - - - 10.7 1017.2 0.0
22/11:30am SW 8 11 - - - - - - - 10.2 - 0.0
22/11:00am SW 9 12 - - - - - - - 9.4 - 0.0
22/10:30am W 10 13 - - - - - - - 10.5 - 0.0
22/10:00am NW 12 14 - - - - - - - 10.3 - 0.0
22/09:30am WNW 10 14 - - - - - - - 9.8 - 0.0
22/09:00am W 7 9 <0.5 3.0 12 SW 25 Mostly clear Fine 9.5 1017.3 0.4
22/08:30am WSW 8 10 - - - - - - - 9.0 - 0.4
22/08:00am NW 10 12 - - - - - - - 9.2 - 0.4
22/07:30am NNW 12 15 - - - - - - - 9.1 - 0.4
22/07:00am NW 11 13 - - - - - - - 9.1 - 0.4
22/06:30am NW 14 16 - - - - - - - 9.1 - 0.4
22/06:00am NW 15 18 1 2.5 11 SW 15 Mostly clear Fine 9.1 1016.1 0.4
22/05:30am WNW 16 18 - - - - - - - 9.1 - 0.4
22/05:00am WNW 17 19 - - - - - - - 9.1 - 0.4

Other formats

Comma delimited format used in spreadsheet applications
http://www.bom.gov.au/fwo/IDT60701/IDT60701.94962.axf

JavaScript Object Notation format (JSON) in row-major order
http://www.bom.gov.au/fwo/IDT60701/IDT60701.94962.json

Data quality

Most of these data are generated automatically and are frequently updated. Quality checks on data are not normally performed. It is possible for incorrect values to appear. Refer to information at About Latest Weather Observations and please check the disclaimer before using these data.